AAL2547 KMIA-KSAV
Flight info
| Callsign | AAL2547 |
|---|---|
| Flight time | 1h 12m |
| Altitude | 35000 |
| Route | ALTNN2 DUCEN Q87 VIYAP |
| Aircraft | A320/M-SDE3FGHIRWY/LB1 |
Departure
| Time | 2026-05-05 18:38 |
|---|---|
| Airport | Miami International Airport (KMIA) |
Arrival
| Time | 2026-05-05 19:50 |
|---|---|
| Airport | Savannah Hilton Head International Airport (KSAV) |
| Time | Latitude | Longitude | Altitude | Speed | Heading |
|---|---|---|---|---|---|
| 2026-05-05 18:03 | 25.79732 | -80.28404 | 12 ft | 0 kts | 338° |
| 2026-05-05 18:25 | 25.79731 | -80.28404 | 12 ft | 0 kts | 338° |
| 2026-05-05 18:26 | 25.79728 | -80.28403 | 12 ft | 2 kts | 338° |
| 2026-05-05 18:26 | 25.79714 | -80.28396 | 12 ft | 2 kts | 338° |
| 2026-05-05 18:26 | 25.79700 | -80.28390 | 12 ft | 2 kts | 338° |
| 2026-05-05 18:26 | 25.79686 | -80.28383 | 12 ft | 2 kts | 320° |
| 2026-05-05 18:27 | 25.79676 | -80.28371 | 12 ft | 2 kts | 296° |
| 2026-05-05 18:27 | 25.79672 | -80.28355 | 12 ft | 2 kts | 271° |
| 2026-05-05 18:27 | 25.79673 | -80.28344 | 12 ft | 0 kts | 263° |
| 2026-05-05 18:27 | 25.79673 | -80.28342 | 12 ft | 0 kts | 264° |
| 2026-05-05 18:31 | 25.79672 | -80.28348 | 12 ft | 4 kts | 264° |
| 2026-05-05 18:31 | 25.79669 | -80.28427 | 12 ft | 11 kts | 268° |
| 2026-05-05 18:31 | 25.79662 | -80.28520 | 12 ft | 12 kts | 257° |
| 2026-05-05 18:32 | 25.79649 | -80.28622 | 12 ft | 13 kts | 266° |
| 2026-05-05 18:32 | 25.79641 | -80.28732 | 12 ft | 14 kts | 266° |
| 2026-05-05 18:32 | 25.79647 | -80.28849 | 12 ft | 15 kts | 277° |
| 2026-05-05 18:32 | 25.79728 | -80.28905 | 12 ft | 15 kts | 358° |
| 2026-05-05 18:33 | 25.79840 | -80.28910 | 12 ft | 16 kts | 358° |
| 2026-05-05 18:33 | 25.79956 | -80.28916 | 12 ft | 16 kts | 358° |
| 2026-05-05 18:33 | 25.80008 | -80.28998 | 12 ft | 15 kts | 267° |
| 2026-05-05 18:33 | 25.80007 | -80.29018 | 12 ft | 0 kts | 267° |
| 2026-05-05 18:34 | 25.80006 | -80.29050 | 12 ft | 6 kts | 267° |
| 2026-05-05 18:34 | 25.80004 | -80.29103 | 12 ft | 7 kts | 268° |
| 2026-05-05 18:34 | 25.80002 | -80.29169 | 12 ft | 9 kts | 268° |
| 2026-05-05 18:34 | 25.79998 | -80.29248 | 12 ft | 10 kts | 267° |
| 2026-05-05 18:35 | 25.79994 | -80.29338 | 12 ft | 12 kts | 267° |
| 2026-05-05 18:35 | 25.79990 | -80.29437 | 12 ft | 13 kts | 267° |
| 2026-05-05 18:35 | 25.79988 | -80.29544 | 12 ft | 14 kts | 268° |
| 2026-05-05 18:35 | 25.79983 | -80.29658 | 12 ft | 15 kts | 266° |
| 2026-05-05 18:36 | 25.79975 | -80.29779 | 12 ft | 16 kts | 265° |
| 2026-05-05 18:36 | 25.79975 | -80.29904 | 12 ft | 16 kts | 268° |
| 2026-05-05 18:36 | 25.79994 | -80.30030 | 12 ft | 16 kts | 288° |
| 2026-05-05 18:36 | 25.80039 | -80.30121 | 12 ft | 12 kts | 352° |
| 2026-05-05 18:37 | 25.80077 | -80.30026 | 12 ft | 26 kts | 86° |
| 2026-05-05 18:37 | 25.80094 | -80.29587 | 12 ft | 94 kts | 88° |
| 2026-05-05 18:37 | 25.80138 | -80.28587 | 21 ft | 161 kts | 88° |
| 2026-05-05 18:37 | 25.80207 | -80.27277 | 524 ft | 179 kts | 85° |
| 2026-05-05 18:38 | 25.80309 | -80.25896 | 1374 ft | 184 kts | 85° |
| 2026-05-05 18:38 | 25.80375 | -80.24504 | 2124 ft | 185 kts | 87° |
| 2026-05-05 18:38 | 25.80409 | -80.23055 | 2625 ft | 194 kts | 87° |
| 2026-05-05 18:38 | 25.80452 | -80.21522 | 3070 ft | 207 kts | 87° |
| 2026-05-05 18:39 | 25.80508 | -80.19873 | 3477 ft | 222 kts | 86° |
| 2026-05-05 18:39 | 25.80778 | -80.18153 | 3930 ft | 235 kts | 63° |
| 2026-05-05 18:39 | 25.81794 | -80.16677 | 4325 ft | 252 kts | 36° |
| 2026-05-05 18:39 | 25.83402 | -80.15851 | 4781 ft | 265 kts | 8° |
| 2026-05-05 18:40 | 25.85285 | -80.15732 | 5382 ft | 276 kts | 358° |
| 2026-05-05 18:40 | 25.87190 | -80.15730 | 6262 ft | 276 kts | 358° |
| 2026-05-05 18:40 | 25.89117 | -80.15837 | 7096 ft | 277 kts | 350° |
| 2026-05-05 18:40 | 25.90999 | -80.16252 | 7878 ft | 279 kts | 342° |
| 2026-05-05 18:41 | 25.92875 | -80.16875 | 8586 ft | 284 kts | 340° |
| 2026-05-05 18:41 | 25.94763 | -80.17548 | 9341 ft | 287 kts | 339° |
| 2026-05-05 18:41 | 25.96658 | -80.18230 | 10103 ft | 288 kts | 339° |
| 2026-05-05 18:41 | 25.98587 | -80.18878 | 10864 ft | 289 kts | 341° |
| 2026-05-05 18:42 | 26.00602 | -80.19333 | 11304 ft | 304 kts | 350° |
| 2026-05-05 18:42 | 26.02766 | -80.19538 | 11594 ft | 321 kts | 353° |
| 2026-05-05 18:42 | 26.05062 | -80.19715 | 11874 ft | 337 kts | 352° |
| 2026-05-05 18:42 | 26.07449 | -80.19917 | 12197 ft | 350 kts | 352° |
| 2026-05-05 18:43 | 26.09901 | -80.20147 | 12770 ft | 354 kts | 352° |
| 2026-05-05 18:43 | 26.12360 | -80.20389 | 13392 ft | 356 kts | 351° |
| 2026-05-05 18:43 | 26.14808 | -80.20639 | 13973 ft | 358 kts | 351° |
| 2026-05-05 18:43 | 26.17273 | -80.20893 | 14566 ft | 360 kts | 351° |
| 2026-05-05 18:44 | 26.19765 | -80.21150 | 15163 ft | 361 kts | 351° |
| 2026-05-05 18:44 | 26.22285 | -80.21386 | 15740 ft | 362 kts | 352° |
| 2026-05-05 18:44 | 26.24800 | -80.21607 | 16314 ft | 363 kts | 352° |
| 2026-05-05 18:44 | 26.27323 | -80.21830 | 16900 ft | 363 kts | 352° |
| 2026-05-05 18:45 | 26.29831 | -80.22051 | 17451 ft | 364 kts | 352° |
| 2026-05-05 18:45 | 26.32359 | -80.22276 | 17981 ft | 365 kts | 351° |
| 2026-05-05 18:45 | 26.34899 | -80.22504 | 18460 ft | 367 kts | 351° |
| 2026-05-05 18:45 | 26.37452 | -80.22733 | 18923 ft | 369 kts | 351° |
| 2026-05-05 18:46 | 26.40029 | -80.22984 | 19364 ft | 372 kts | 350° |
| 2026-05-05 18:46 | 26.42609 | -80.23252 | 19801 ft | 374 kts | 350° |
| 2026-05-05 18:46 | 26.45221 | -80.23524 | 20242 ft | 377 kts | 350° |
| 2026-05-05 18:46 | 26.47833 | -80.23796 | 20670 ft | 379 kts | 350° |
| 2026-05-05 18:47 | 26.50467 | -80.24066 | 21096 ft | 381 kts | 350° |
| 2026-05-05 18:47 | 26.53116 | -80.24339 | 21523 ft | 382 kts | 349° |
| 2026-05-05 18:47 | 26.55764 | -80.24621 | 21925 ft | 383 kts | 348° |
| 2026-05-05 18:47 | 26.58374 | -80.25012 | 22312 ft | 384 kts | 346° |
| 2026-05-05 18:48 | 26.60939 | -80.25436 | 22685 ft | 386 kts | 346° |
| 2026-05-05 18:48 | 26.63607 | -80.25884 | 23080 ft | 388 kts | 346° |
| 2026-05-05 18:48 | 26.66293 | -80.26336 | 23471 ft | 390 kts | 346° |
| 2026-05-05 18:48 | 26.68957 | -80.26876 | 23852 ft | 389 kts | 342° |
| 2026-05-05 18:49 | 26.71590 | -80.27610 | 24230 ft | 389 kts | 339° |
| 2026-05-05 18:49 | 26.74162 | -80.28532 | 24602 ft | 388 kts | 336° |
| 2026-05-05 18:49 | 26.76702 | -80.29574 | 24994 ft | 389 kts | 335° |
| 2026-05-05 18:49 | 26.79233 | -80.30630 | 25357 ft | 391 kts | 335° |
| 2026-05-05 18:50 | 26.81793 | -80.31705 | 25695 ft | 393 kts | 335° |
| 2026-05-05 18:50 | 26.84358 | -80.32780 | 26047 ft | 394 kts | 335° |
| 2026-05-05 18:50 | 26.86932 | -80.33859 | 26412 ft | 395 kts | 335° |
| 2026-05-05 18:50 | 26.89518 | -80.34941 | 26772 ft | 397 kts | 335° |
| 2026-05-05 18:51 | 26.92110 | -80.36030 | 27105 ft | 399 kts | 335° |
| 2026-05-05 18:51 | 26.94716 | -80.37117 | 27443 ft | 400 kts | 335° |
| 2026-05-05 18:51 | 26.97343 | -80.38181 | 27774 ft | 402 kts | 336° |
| 2026-05-05 18:51 | 26.99983 | -80.39241 | 28102 ft | 403 kts | 336° |
| 2026-05-05 18:52 | 27.02632 | -80.40305 | 28410 ft | 405 kts | 336° |
| 2026-05-05 18:52 | 27.05288 | -80.41375 | 28713 ft | 406 kts | 336° |
| 2026-05-05 18:52 | 27.07956 | -80.42452 | 29011 ft | 408 kts | 336° |
| 2026-05-05 18:52 | 27.10620 | -80.43550 | 29302 ft | 408 kts | 335° |
| 2026-05-05 18:53 | 27.13257 | -80.44709 | 29611 ft | 409 kts | 335° |
| 2026-05-05 18:53 | 27.15895 | -80.45883 | 30003 ft | 407 kts | 335° |
| 2026-05-05 18:53 | 27.18519 | -80.47049 | 30453 ft | 404 kts | 335° |
| 2026-05-05 18:53 | 27.21122 | -80.48204 | 30910 ft | 400 kts | 335° |
| 2026-05-05 18:54 | 27.23702 | -80.49346 | 31376 ft | 396 kts | 335° |
| 2026-05-05 18:54 | 27.26255 | -80.50476 | 31785 ft | 394 kts | 334° |
| 2026-05-05 18:54 | 27.28799 | -80.51605 | 32168 ft | 392 kts | 334° |
| 2026-05-05 18:54 | 27.31322 | -80.52723 | 32573 ft | 389 kts | 334° |
| 2026-05-05 18:55 | 27.33836 | -80.53836 | 32969 ft | 386 kts | 334° |
| 2026-05-05 18:55 | 27.36324 | -80.54928 | 33389 ft | 383 kts | 335° |
| 2026-05-05 18:55 | 27.38829 | -80.55939 | 33725 ft | 383 kts | 336° |
| 2026-05-05 18:55 | 27.41346 | -80.56938 | 33986 ft | 383 kts | 336° |
| 2026-05-05 18:56 | 27.43862 | -80.57935 | 34212 ft | 384 kts | 336° |
| 2026-05-05 18:56 | 27.46384 | -80.58937 | 34463 ft | 384 kts | 336° |
| 2026-05-05 18:56 | 27.48898 | -80.59936 | 34716 ft | 384 kts | 336° |
| 2026-05-05 18:56 | 27.51416 | -80.60936 | 34946 ft | 384 kts | 336° |
| 2026-05-05 18:57 | 27.56472 | -80.62946 | 35052 ft | 385 kts | 336° |
| 2026-05-05 18:57 | 27.61532 | -80.64961 | 35053 ft | 385 kts | 336° |
| 2026-05-05 18:58 | 27.66553 | -80.66967 | 35054 ft | 384 kts | 335° |
| 2026-05-05 18:58 | 27.71602 | -80.68981 | 35053 ft | 384 kts | 336° |
| 2026-05-05 18:59 | 27.76655 | -80.71000 | 35052 ft | 384 kts | 335° |
| 2026-05-05 18:59 | 27.81684 | -80.73015 | 35044 ft | 384 kts | 335° |
| 2026-05-05 19:00 | 27.86729 | -80.75034 | 35050 ft | 384 kts | 335° |
| 2026-05-05 19:00 | 27.91767 | -80.77051 | 35053 ft | 383 kts | 335° |
| 2026-05-05 19:01 | 27.96807 | -80.79075 | 35054 ft | 384 kts | 335° |
| 2026-05-05 19:01 | 28.01853 | -80.81103 | 35055 ft | 383 kts | 335° |
| 2026-05-05 19:02 | 28.06878 | -80.83123 | 35056 ft | 382 kts | 335° |
| 2026-05-05 19:02 | 28.11910 | -80.85147 | 35060 ft | 384 kts | 335° |
| 2026-05-05 19:03 | 28.16946 | -80.87175 | 35056 ft | 384 kts | 335° |
| 2026-05-05 19:03 | 28.21979 | -80.89207 | 35058 ft | 383 kts | 335° |
| 2026-05-05 19:04 | 28.26840 | -80.91169 | 35058 ft | 383 kts | 335° |
| 2026-05-05 19:04 | 28.31901 | -80.93213 | 35058 ft | 383 kts | 335° |
| 2026-05-05 19:05 | 28.36911 | -80.95237 | 35059 ft | 383 kts | 335° |
| 2026-05-05 19:05 | 28.41950 | -80.97277 | 35064 ft | 384 kts | 335° |
| 2026-05-05 19:06 | 28.46987 | -80.99319 | 35069 ft | 384 kts | 335° |
| 2026-05-05 19:06 | 28.52003 | -81.01356 | 35068 ft | 382 kts | 335° |
| 2026-05-05 19:07 | 28.57018 | -81.03393 | 35066 ft | 383 kts | 335° |
| 2026-05-05 19:07 | 28.62029 | -81.05432 | 35069 ft | 384 kts | 335° |
| 2026-05-05 19:08 | 28.67023 | -81.07460 | 35068 ft | 383 kts | 335° |
| 2026-05-05 19:08 | 28.71926 | -81.09458 | 35070 ft | 383 kts | 335° |
| 2026-05-05 19:09 | 28.76988 | -81.11520 | 35066 ft | 384 kts | 335° |
| 2026-05-05 19:09 | 28.82018 | -81.13577 | 35067 ft | 383 kts | 335° |
| 2026-05-05 19:10 | 28.87039 | -81.15622 | 35067 ft | 383 kts | 334° |
| 2026-05-05 19:10 | 28.92050 | -81.17677 | 35067 ft | 383 kts | 335° |
| 2026-05-05 19:11 | 28.97066 | -81.19733 | 35080 ft | 382 kts | 334° |
| 2026-05-05 19:11 | 29.01438 | -81.21519 | 35077 ft | 382 kts | 335° |
| 2026-05-05 19:12 | 29.06454 | -81.23577 | 35075 ft | 382 kts | 335° |
| 2026-05-05 19:12 | 29.11460 | -81.25633 | 35080 ft | 382 kts | 335° |
| 2026-05-05 19:13 | 29.16472 | -81.27697 | 35077 ft | 382 kts | 335° |
| 2026-05-05 19:13 | 29.21278 | -81.29633 | 35071 ft | 384 kts | 336° |
| 2026-05-05 19:14 | 29.26240 | -81.31183 | 35075 ft | 388 kts | 341° |
| 2026-05-05 19:14 | 29.31573 | -81.32276 | 35078 ft | 392 kts | 345° |
| 2026-05-05 19:15 | 29.37027 | -81.32820 | 35076 ft | 395 kts | 348° |
| 2026-05-05 19:15 | 29.42513 | -81.33164 | 35073 ft | 394 kts | 349° |
| 2026-05-05 19:16 | 29.47997 | -81.33491 | 35075 ft | 394 kts | 349° |
| 2026-05-05 19:16 | 29.53490 | -81.33817 | 35078 ft | 395 kts | 349° |
| 2026-05-05 19:17 | 29.58980 | -81.34142 | 35074 ft | 394 kts | 349° |
| 2026-05-05 19:17 | 29.64477 | -81.34466 | 35076 ft | 396 kts | 349° |
| 2026-05-05 19:18 | 29.69968 | -81.34791 | 35074 ft | 394 kts | 349° |
| 2026-05-05 19:18 | 29.75461 | -81.35114 | 35068 ft | 396 kts | 349° |
| 2026-05-05 19:19 | 29.80977 | -81.35442 | 35070 ft | 396 kts | 348° |
| 2026-05-05 19:19 | 29.86462 | -81.35771 | 35072 ft | 394 kts | 349° |
| 2026-05-05 19:20 | 29.91947 | -81.36095 | 35077 ft | 395 kts | 349° |
| 2026-05-05 19:20 | 29.97437 | -81.36420 | 35082 ft | 395 kts | 348° |
| 2026-05-05 19:21 | 30.02948 | -81.36750 | 35081 ft | 396 kts | 348° |
| 2026-05-05 19:21 | 30.08447 | -81.37077 | 35082 ft | 395 kts | 349° |
| 2026-05-05 19:22 | 30.13932 | -81.37403 | 35080 ft | 395 kts | 349° |
| 2026-05-05 19:22 | 30.19423 | -81.37732 | 35078 ft | 395 kts | 348° |
| 2026-05-05 19:23 | 30.24920 | -81.38058 | 35076 ft | 396 kts | 348° |
| 2026-05-05 19:23 | 30.30431 | -81.38393 | 35079 ft | 396 kts | 349° |
| 2026-05-05 19:24 | 30.35931 | -81.38719 | 35078 ft | 395 kts | 349° |
| 2026-05-05 19:24 | 30.41424 | -81.39050 | 35076 ft | 395 kts | 349° |
| 2026-05-05 19:25 | 30.46920 | -81.39379 | 35078 ft | 396 kts | 349° |
| 2026-05-05 19:25 | 30.52432 | -81.39669 | 35076 ft | 396 kts | 349° |
| 2026-05-05 19:26 | 30.57951 | -81.39957 | 35075 ft | 397 kts | 349° |
| 2026-05-05 19:26 | 30.63465 | -81.40251 | 35075 ft | 395 kts | 349° |
| 2026-05-05 19:27 | 30.68974 | -81.40543 | 35075 ft | 397 kts | 349° |
| 2026-05-05 19:27 | 30.74498 | -81.40835 | 35076 ft | 397 kts | 349° |
| 2026-05-05 19:28 | 30.80027 | -81.41129 | 35067 ft | 397 kts | 349° |
| 2026-05-05 19:28 | 30.82789 | -81.41277 | 34824 ft | 397 kts | 349° |
| 2026-05-05 19:28 | 30.85554 | -81.41420 | 34345 ft | 397 kts | 349° |
| 2026-05-05 19:29 | 30.88301 | -81.41567 | 33702 ft | 393 kts | 350° |
| 2026-05-05 19:29 | 30.91019 | -81.41713 | 33040 ft | 392 kts | 349° |
| 2026-05-05 19:29 | 30.93742 | -81.41860 | 32303 ft | 394 kts | 350° |
| 2026-05-05 19:29 | 30.96479 | -81.42010 | 31512 ft | 396 kts | 351° |
| 2026-05-05 19:30 | 30.99248 | -81.42161 | 30589 ft | 402 kts | 351° |
| 2026-05-05 19:30 | 31.02059 | -81.42314 | 29565 ft | 410 kts | 351° |
| 2026-05-05 19:30 | 31.04920 | -81.42469 | 28600 ft | 415 kts | 352° |
| 2026-05-05 19:30 | 31.07792 | -81.42618 | 27931 ft | 412 kts | 352° |
| 2026-05-05 19:31 | 31.10646 | -81.42763 | 27356 ft | 408 kts | 352° |
| 2026-05-05 19:31 | 31.13468 | -81.42909 | 26805 ft | 404 kts | 352° |
| 2026-05-05 19:31 | 31.16253 | -81.43056 | 26210 ft | 401 kts | 352° |
| 2026-05-05 19:31 | 31.19028 | -81.43206 | 25602 ft | 398 kts | 352° |
| 2026-05-05 19:32 | 31.21781 | -81.43330 | 25050 ft | 396 kts | 354° |
| 2026-05-05 19:32 | 31.24537 | -81.43212 | 24484 ft | 396 kts | 359° |
| 2026-05-05 19:32 | 31.27272 | -81.42803 | 23909 ft | 398 kts | 4° |
| 2026-05-05 19:32 | 31.29978 | -81.42114 | 23359 ft | 398 kts | 7° |
| 2026-05-05 19:33 | 31.32653 | -81.41319 | 22805 ft | 396 kts | 8° |
| 2026-05-05 19:33 | 31.35309 | -81.40510 | 22267 ft | 394 kts | 8° |
| 2026-05-05 19:33 | 31.37952 | -81.39703 | 21685 ft | 394 kts | 8° |
| 2026-05-05 19:33 | 31.40594 | -81.38897 | 21114 ft | 393 kts | 9° |
| 2026-05-05 19:34 | 31.43239 | -81.38091 | 20512 ft | 393 kts | 9° |
| 2026-05-05 19:34 | 31.45883 | -81.37286 | 19855 ft | 395 kts | 10° |
| 2026-05-05 19:34 | 31.48549 | -81.36475 | 19150 ft | 398 kts | 10° |
| 2026-05-05 19:35 | 31.53892 | -81.34844 | 17950 ft | 396 kts | 11° |
| 2026-05-05 19:35 | 31.56554 | -81.34030 | 17334 ft | 395 kts | 11° |
| 2026-05-05 19:35 | 31.59205 | -81.33218 | 16760 ft | 393 kts | 11° |
| 2026-05-05 19:35 | 31.61839 | -81.32411 | 16193 ft | 391 kts | 11° |
| 2026-05-05 19:36 | 31.64461 | -81.31607 | 15603 ft | 389 kts | 11° |
| 2026-05-05 19:36 | 31.67069 | -81.30809 | 15051 ft | 387 kts | 12° |
| 2026-05-05 19:36 | 31.69668 | -81.30013 | 14490 ft | 385 kts | 12° |
| 2026-05-05 19:36 | 31.72246 | -81.29221 | 13920 ft | 384 kts | 12° |
| 2026-05-05 19:37 | 31.74822 | -81.28433 | 13370 ft | 382 kts | 12° |
| 2026-05-05 19:37 | 31.77385 | -81.27646 | 12818 ft | 380 kts | 12° |
| 2026-05-05 19:37 | 31.79924 | -81.26865 | 12271 ft | 377 kts | 12° |
| 2026-05-05 19:37 | 31.82457 | -81.26087 | 11741 ft | 375 kts | 12° |
| 2026-05-05 19:38 | 31.84977 | -81.25313 | 11206 ft | 373 kts | 12° |
| 2026-05-05 19:38 | 31.87471 | -81.24547 | 10720 ft | 368 kts | 12° |
| 2026-05-05 19:38 | 31.89917 | -81.23792 | 10500 ft | 356 kts | 12° |
| 2026-05-05 19:38 | 31.92271 | -81.23065 | 10345 ft | 344 kts | 13° |
| 2026-05-05 19:39 | 31.94548 | -81.22361 | 10189 ft | 332 kts | 12° |
| 2026-05-05 19:39 | 31.96753 | -81.21680 | 10042 ft | 321 kts | 12° |
| 2026-05-05 19:39 | 31.98891 | -81.21021 | 9842 ft | 314 kts | 12° |
| 2026-05-05 19:39 | 32.00993 | -81.20374 | 9555 ft | 309 kts | 12° |
| 2026-05-05 19:40 | 32.02989 | -81.19759 | 9284 ft | 305 kts | 13° |
| 2026-05-05 19:40 | 32.05031 | -81.19130 | 9009 ft | 300 kts | 13° |
| 2026-05-05 19:40 | 32.07044 | -81.18510 | 8745 ft | 296 kts | 13° |
| 2026-05-05 19:40 | 32.09023 | -81.17898 | 8483 ft | 292 kts | 13° |
| 2026-05-05 19:41 | 32.10972 | -81.17295 | 8203 ft | 289 kts | 13° |
| 2026-05-05 19:41 | 32.12921 | -81.16692 | 7882 ft | 287 kts | 13° |
| 2026-05-05 19:41 | 32.14857 | -81.16092 | 7552 ft | 286 kts | 13° |
| 2026-05-05 19:41 | 32.16782 | -81.15497 | 7233 ft | 285 kts | 13° |
| 2026-05-05 19:42 | 32.18698 | -81.14903 | 6921 ft | 283 kts | 13° |
| 2026-05-05 19:42 | 32.20605 | -81.14313 | 6605 ft | 282 kts | 13° |
| 2026-05-05 19:42 | 32.22498 | -81.13727 | 6293 ft | 281 kts | 13° |
| 2026-05-05 19:42 | 32.24380 | -81.13145 | 6000 ft | 279 kts | 14° |
| 2026-05-05 19:43 | 32.26259 | -81.12562 | 5691 ft | 278 kts | 14° |
| 2026-05-05 19:43 | 32.28128 | -81.11982 | 5388 ft | 277 kts | 14° |
| 2026-05-05 19:43 | 32.29536 | -81.11557 | 5151 ft | 276 kts | 11° |
| 2026-05-05 19:43 | 32.31426 | -81.11602 | 4791 ft | 273 kts | 339° |
| 2026-05-05 19:44 | 32.32953 | -81.12854 | 4433 ft | 269 kts | 304° |
| 2026-05-05 19:44 | 32.33624 | -81.14853 | 4207 ft | 261 kts | 274° |
| 2026-05-05 19:44 | 32.33613 | -81.16920 | 3853 ft | 246 kts | 266° |
| 2026-05-05 19:44 | 32.33386 | -81.18869 | 3445 ft | 235 kts | 245° |
| 2026-05-05 19:45 | 32.32365 | -81.20219 | 3235 ft | 213 kts | 202° |
| 2026-05-05 19:45 | 32.30988 | -81.20431 | 3148 ft | 192 kts | 174° |
| 2026-05-05 19:45 | 32.29728 | -81.20284 | 3048 ft | 172 kts | 174° |
| 2026-05-05 19:45 | 32.28614 | -81.20198 | 2917 ft | 150 kts | 176° |
| 2026-05-05 19:46 | 32.27630 | -81.20150 | 2767 ft | 135 kts | 176° |
| 2026-05-05 19:46 | 32.26696 | -81.20106 | 2534 ft | 135 kts | 176° |
| 2026-05-05 19:46 | 32.25779 | -81.20088 | 2273 ft | 130 kts | 178° |
| 2026-05-05 19:46 | 32.24871 | -81.20090 | 2125 ft | 130 kts | 178° |
| 2026-05-05 19:47 | 32.23965 | -81.20108 | 1982 ft | 130 kts | 178° |
| 2026-05-05 19:47 | 32.23055 | -81.20119 | 1820 ft | 130 kts | 178° |
| 2026-05-05 19:47 | 32.22147 | -81.20135 | 1682 ft | 130 kts | 178° |
| 2026-05-05 19:47 | 32.21241 | -81.20143 | 1463 ft | 129 kts | 176° |
| 2026-05-05 19:48 | 32.20351 | -81.20119 | 1262 ft | 127 kts | 175° |
| 2026-05-05 19:48 | 32.19467 | -81.20090 | 1132 ft | 126 kts | 176° |
| 2026-05-05 19:48 | 32.18585 | -81.20083 | 1011 ft | 126 kts | 177° |
| 2026-05-05 19:48 | 32.17700 | -81.20081 | 831 ft | 126 kts | 176° |
| 2026-05-05 19:49 | 32.16825 | -81.20063 | 642 ft | 126 kts | 176° |
| 2026-05-05 19:49 | 32.15950 | -81.20054 | 476 ft | 125 kts | 176° |
| 2026-05-05 19:49 | 32.15082 | -81.20047 | 346 ft | 124 kts | 176° |
| 2026-05-05 19:49 | 32.14219 | -81.20023 | 180 ft | 124 kts | 175° |
| 2026-05-05 19:50 | 32.13362 | -81.20010 | 43 ft | 121 kts | 176° |
| 2026-05-05 19:50 | 32.12693 | -81.20007 | 42 ft | 56 kts | 178° |
| 2026-05-05 19:50 | 32.12533 | -81.20008 | 41 ft | 15 kts | 179° |
| 2026-05-05 19:50 | 32.12396 | -81.20007 | 39 ft | 20 kts | 179° |
| 2026-05-05 19:51 | 32.12247 | -81.20004 | 36 ft | 21 kts | 180° |
| 2026-05-05 19:51 | 32.12160 | -81.20023 | 34 ft | 9 kts | 230° |
| 2026-05-05 19:51 | 32.12153 | -81.20110 | 33 ft | 12 kts | 269° |
| 2026-05-05 19:51 | 32.12195 | -81.20193 | 32 ft | 14 kts | 347° |
| 2026-05-05 19:52 | 32.12292 | -81.20198 | 33 ft | 13 kts | 360° |
| 2026-05-05 19:52 | 32.12387 | -81.20199 | 35 ft | 13 kts | 360° |
| 2026-05-05 19:52 | 32.12482 | -81.20201 | 36 ft | 13 kts | 352° |
| 2026-05-05 19:52 | 32.12573 | -81.20248 | 36 ft | 15 kts | 331° |
| 2026-05-05 19:53 | 32.12671 | -81.20313 | 35 ft | 16 kts | 330° |
| 2026-05-05 19:53 | 32.12786 | -81.20332 | 35 ft | 17 kts | 358° |
| 2026-05-05 19:53 | 32.12908 | -81.20330 | 35 ft | 17 kts | 1° |
| 2026-05-05 19:53 | 32.13034 | -81.20330 | 35 ft | 18 kts | 2° |
| 2026-05-05 19:54 | 32.13170 | -81.20331 | 32 ft | 20 kts | 359° |
| 2026-05-05 19:54 | 32.13314 | -81.20331 | 32 ft | 20 kts | 0° |
| 2026-05-05 19:54 | 32.13434 | -81.20348 | 30 ft | 14 kts | 314° |
| 2026-05-05 19:54 | 32.13446 | -81.20450 | 27 ft | 0 kts | 269° |
| 2026-05-05 19:55 | 32.13446 | -81.20471 | 27 ft | 7 kts | 269° |
| 2026-05-05 19:55 | 32.13446 | -81.20553 | 26 ft | 11 kts | 270° |
| 2026-05-05 19:55 | 32.13448 | -81.20657 | 25 ft | 13 kts | 269° |
| 2026-05-05 19:56 | 32.13450 | -81.20774 | 24 ft | 15 kts | 272° |
| 2026-05-05 19:56 | 32.13448 | -81.20863 | 22 ft | 7 kts | 269° |
| 2026-05-05 19:56 | 32.13482 | -81.20892 | 22 ft | 8 kts | 358° |
| 2026-05-05 19:56 | 32.13517 | -81.20888 | 22 ft | 0 kts | 8° |
| 2026-05-05 19:57 | 32.13518 | -81.20888 | 22 ft | 0 kts | 8° |